createdAt,value
2023-01-11T00:03:04.103Z,100256.31
2023-01-11T00:06:08.243Z,100252.28
2023-01-11T00:09:10.563Z,100252.88
2023-01-11T00:12:14.293Z,100250.47
2023-01-11T00:15:17.171Z,100258.28
2023-01-11T00:18:19.663Z,100260.16
2023-01-11T00:21:22.635Z,100257.72
2023-01-11T00:24:24.911Z,100246.91
2023-01-11T00:27:27.184Z,100237.94
2023-01-11T00:30:29.508Z,100245.09
2023-01-11T00:33:31.896Z,100245.72
2023-01-11T00:36:34.971Z,100255.91
2023-01-11T00:39:37.281Z,100251.59
2023-01-11T00:42:58.209Z,100261.47
2023-01-11T00:46:19.068Z,100270.84
2023-01-11T00:49:21.676Z,100270.91
2023-01-11T00:52:24.037Z,100264.78
2023-01-11T00:55:26.908Z,100272.59
2023-01-11T00:58:29.104Z,100276.69
2023-01-11T01:01:31.792Z,100288.78
2023-01-11T01:04:34.920Z,100282.06
2023-01-11T01:07:37.755Z,100284.19
2023-01-11T01:10:39.953Z,100298.34
2023-01-11T01:14:00.820Z,100305.22
2023-01-11T01:17:09.012Z,100316.06
2023-01-11T01:20:11.657Z,100314.75
2023-01-11T01:23:13.924Z,100322.66
2023-01-11T01:26:16.194Z,100304.78
2023-01-11T01:29:18.497Z,100314.25
2023-01-11T01:32:20.779Z,100321.19
2023-01-11T01:35:23.144Z,100315.06
2023-01-11T01:38:25.495Z,100307.63
2023-01-11T01:41:28.440Z,100306.63
2023-01-11T01:44:54.461Z,100309.88
2023-01-11T01:48:01.987Z,100295.38
2023-01-11T01:51:06.169Z,100296.13
2023-01-11T01:54:13.230Z,100310.78
2023-01-11T01:57:21.643Z,100315.16
2023-01-11T02:00:24.121Z,100312.59
2023-01-11T02:03:27.095Z,100315.13
2023-01-11T02:06:29.393Z,100331.97
2023-01-11T02:09:45.768Z,100347.44
2023-01-11T02:12:57.087Z,100338.25
2023-01-11T02:16:08.462Z,100323.88
2023-01-11T02:19:18.813Z,100319.78
2023-01-11T02:22:34.350Z,100324.41
2023-01-11T02:25:54.741Z,100315.91
2023-01-11T02:29:03.429Z,100326.19
2023-01-11T02:32:29.089Z,100321.19
2023-01-11T02:35:31.425Z,100327.44
2023-01-11T02:38:46.626Z,100320.16
2023-01-11T02:42:17.638Z,100344.03
2023-01-11T02:45:32.470Z,100343.06
2023-01-11T02:48:42.254Z,100357.84
2023-01-11T02:51:52.043Z,100351.44
2023-01-11T02:54:57.906Z,100358.13
2023-01-11T02:58:02.623Z,100356.03
2023-01-11T03:01:05.105Z,100352.88
2023-01-11T03:04:29.867Z,100362.25
2023-01-11T03:07:47.605Z,100387.38
2023-01-11T03:11:05.884Z,100383.44
2023-01-11T03:14:35.670Z,100383.53
2023-01-11T03:17:40.932Z,100379.00
2023-01-11T03:20:49.782Z,100383.31
2023-01-11T03:23:57.911Z,100377.56
2023-01-11T03:27:00.117Z,100388.66
2023-01-11T03:30:21.699Z,100381.72
2023-01-11T03:33:50.180Z,100369.88
2023-01-11T03:37:24.983Z,100373.59
2023-01-11T03:40:30.788Z,100371.28
2023-01-11T03:43:34.667Z,100359.34
2023-01-11T03:46:40.314Z,100361.34
2023-01-11T03:50:07.294Z,100363.44
2023-01-11T03:53:10.749Z,100344.97
2023-01-11T03:56:16.264Z,100335.13
2023-01-11T03:59:18.617Z,100342.31
2023-01-11T04:02:24.915Z,100343.03
2023-01-11T04:05:27.297Z,100347.50
2023-01-11T04:08:31.273Z,100343.41
2023-01-11T04:11:33.707Z,100342.41
2023-01-11T04:14:36.194Z,100354.41
2023-01-11T04:17:38.511Z,100347.78
2023-01-11T04:20:41.360Z,100341.78
2023-01-11T04:23:43.649Z,100339.69
2023-01-11T04:26:45.924Z,100349.41
2023-01-11T04:29:48.245Z,100363.16
2023-01-11T04:32:50.598Z,100379.28
2023-01-11T04:35:52.832Z,100392.03
2023-01-11T04:38:55.154Z,100400.75
2023-01-11T04:42:16.118Z,100400.41
2023-01-11T04:45:18.381Z,100404.78
2023-01-11T04:48:20.787Z,100391.22
2023-01-11T04:51:23.243Z,100381.38
2023-01-11T04:54:25.520Z,100373.00
2023-01-11T04:57:27.809Z,100390.66
2023-01-11T05:00:30.153Z,100388.50
2023-01-11T05:03:32.953Z,100396.03
2023-01-11T05:06:35.335Z,100412.16
2023-01-11T05:09:37.641Z,100406.50
2023-01-11T05:12:40.021Z,100391.84
2023-01-11T05:15:42.334Z,100393.19
2023-01-11T05:18:49.504Z,100404.56
2023-01-11T05:21:51.880Z,100406.19
2023-01-11T05:24:54.111Z,100399.81
2023-01-11T05:27:56.433Z,100389.09
2023-01-11T05:30:58.844Z,100399.81
2023-01-11T05:34:01.220Z,100392.81
2023-01-11T05:37:03.530Z,100387.91
2023-01-11T05:40:06.952Z,100394.00
2023-01-11T05:43:09.355Z,100381.88
2023-01-11T05:46:12.539Z,100392.09
2023-01-11T05:49:15.125Z,100382.16
2023-01-11T05:52:17.690Z,100371.47
2023-01-11T05:55:20.167Z,100366.53
2023-01-11T05:58:23.723Z,100364.06
2023-01-11T06:01:26.412Z,100365.19
2023-01-11T06:04:28.820Z,100373.56
2023-01-11T06:07:33.152Z,100382.84
2023-01-11T06:10:38.552Z,100359.41
2023-01-11T06:13:40.841Z,100360.84
2023-01-11T06:16:43.483Z,100384.63
2023-01-11T06:19:51.310Z,100382.81
2023-01-11T06:22:53.839Z,100382.81
2023-01-11T06:26:01.287Z,100373.25
2023-01-11T06:29:03.604Z,100402.38
2023-01-11T06:32:16.295Z,100395.84
2023-01-11T06:35:19.842Z,100395.28
2023-01-11T06:38:24.283Z,100402.00
2023-01-11T06:41:29.030Z,100392.56
2023-01-11T06:44:31.262Z,100398.06
2023-01-11T06:47:33.579Z,100406.50
2023-01-11T06:50:35.946Z,100422.06
2023-01-11T06:53:38.481Z,100429.75
2023-01-11T06:56:41.269Z,100423.53
2023-01-11T06:59:44.274Z,100446.31
2023-01-11T07:02:47.555Z,100460.50
2023-01-11T07:05:50.285Z,100448.38
2023-01-11T07:08:58.863Z,100451.75
2023-01-11T07:12:10.971Z,100453.94
2023-01-11T07:15:13.581Z,100473.97
2023-01-11T07:18:19.504Z,100463.38
2023-01-11T07:21:21.970Z,100469.91
2023-01-11T07:24:25.315Z,100472.72
2023-01-11T07:27:36.285Z,100471.44
2023-01-11T07:30:55.587Z,100465.38
2023-01-11T07:33:58.914Z,100466.84
2023-01-11T07:37:01.231Z,100464.09
2023-01-11T07:40:03.813Z,100458.59
2023-01-11T07:43:14.378Z,100469.72
2023-01-11T07:46:20.307Z,100446.47
2023-01-11T07:49:25.830Z,100432.75
2023-01-11T07:52:28.174Z,100462.44
2023-01-11T07:55:31.495Z,100482.69
2023-01-11T07:58:39.384Z,100455.47
2023-01-11T08:02:02.018Z,100461.94
2023-01-11T08:05:08.842Z,100427.88
2023-01-11T08:08:16.067Z,100488.25
2023-01-11T08:11:37.063Z,100472.97
2023-01-11T08:14:39.349Z,100473.44
2023-01-11T08:17:41.726Z,100479.81
2023-01-11T08:20:44.140Z,100477.91
2023-01-11T08:23:46.482Z,100496.38
2023-01-11T08:26:49.999Z,100498.88
2023-01-11T08:29:52.359Z,100503.41
2023-01-11T08:32:54.747Z,100482.56
2023-01-11T08:35:57.134Z,100500.53
2023-01-11T08:38:59.524Z,100505.44
2023-01-11T08:42:03.375Z,100474.53
2023-01-11T08:46:37.466Z,100498.25
2023-01-11T08:49:43.164Z,100499.31
2023-01-11T08:52:45.415Z,100505.16
2023-01-11T08:59:32.595Z,100501.38
2023-01-11T09:02:36.754Z,100492.56
2023-01-11T09:05:48.116Z,100510.03
2023-01-11T09:08:59.432Z,100502.03
2023-01-11T09:12:11.799Z,100483.56
2023-01-11T09:15:15.296Z,100470.44
2023-01-11T09:18:17.644Z,100470.19
2023-01-11T09:21:26.768Z,100477.19
2023-01-11T09:24:30.789Z,100498.63
2023-01-11T09:27:33.348Z,100506.38
2023-01-11T09:30:36.767Z,100490.56
2023-01-11T09:33:39.343Z,100451.56
2023-01-11T09:36:41.822Z,100487.03
2023-01-11T09:39:44.810Z,100499.09
2023-01-11T09:42:52.716Z,100486.94
2023-01-11T09:46:00.502Z,100464.56
2023-01-11T09:49:03.533Z,100468.59
2023-01-11T09:52:39.547Z,100469.09
2023-01-11T09:55:50.563Z,100447.53
2023-01-11T09:59:19.288Z,100424.84
2023-01-11T10:02:31.710Z,100454.56
2023-01-11T10:06:07.048Z,100453.28
2023-01-11T10:18:37.852Z,100436.72
2023-01-11T10:20:35.536Z,100454.59
2023-01-11T10:23:49.613Z,100450.88
2023-01-11T10:26:59.655Z,100443.34
2023-01-11T10:30:32.834Z,100432.25
2023-01-11T10:33:52.274Z,100414.94
2023-01-11T10:37:30.659Z,100429.63
2023-01-11T10:45:12.348Z,100444.88
2023-01-11T10:48:38.842Z,100444.13
2023-01-11T10:53:17.927Z,100445.88
2023-01-11T10:57:03.125Z,100452.72
2023-01-11T11:01:11.366Z,100449.50
2023-01-11T11:04:40.260Z,100438.41
2023-01-11T11:07:56.178Z,100430.00
2023-01-11T11:11:01.953Z,100418.31
2023-01-11T11:14:13.483Z,100413.59
2023-01-11T11:17:24.484Z,100417.06
2023-01-11T11:20:32.530Z,100413.75
2023-01-11T11:23:35.268Z,100426.47
2023-01-11T11:26:41.645Z,100421.53
2023-01-11T11:29:50.110Z,100396.13
2023-01-11T11:33:00.423Z,100397.38
2023-01-11T11:36:05.573Z,100401.34
2023-01-11T11:39:19.971Z,100411.59
2023-01-11T11:42:23.218Z,100407.50
2023-01-11T11:45:27.721Z,100399.47
2023-01-11T11:48:34.665Z,100400.41
2023-01-11T11:51:37.147Z,100403.06
2023-01-11T11:54:50.049Z,100397.41
2023-01-11T11:57:52.569Z,100397.22
2023-01-11T12:00:55.105Z,100401.63
2023-01-11T12:04:21.485Z,100407.38
2023-01-11T12:07:40.465Z,100411.47
2023-01-11T12:10:58.064Z,100410.53
2023-01-11T12:14:16.567Z,100414.81
2023-01-11T12:17:26.005Z,100396.34
2023-01-11T12:20:34.037Z,100415.44
2023-01-11T12:23:36.706Z,100419.84
2023-01-11T12:27:16.310Z,100422.06
2023-01-11T12:30:35.709Z,100412.28
2023-01-11T12:33:41.371Z,100418.91
2023-01-11T12:36:46.565Z,100423.44
2023-01-11T12:40:10.907Z,100423.75
2023-01-11T12:43:34.524Z,100419.91
2023-01-11T12:47:05.567Z,100414.16
2023-01-11T12:50:17.413Z,100411.19
2023-01-11T12:53:49.063Z,100413.28
2023-01-11T12:57:10.685Z,100420.03
2023-01-11T13:00:50.691Z,100405.25
2023-01-11T13:04:21.031Z,100406.41
2023-01-11T13:07:34.702Z,100400.84
2023-01-11T13:10:45.586Z,100386.31
2023-01-11T13:14:01.414Z,100408.97
2023-01-11T13:17:12.706Z,100401.06
2023-01-11T13:20:20.896Z,100397.00
2023-01-11T13:23:53.631Z,100394.50
2023-01-11T13:32:01.084Z,100391.50
2023-01-11T13:35:16.086Z,100416.88
2023-01-11T13:38:30.664Z,100415.94
2023-01-11T13:41:46.554Z,100428.44
2023-01-11T13:44:56.862Z,100424.81
2023-01-11T13:48:06.519Z,100405.50
2023-01-11T13:51:11.958Z,100428.50
2023-01-11T13:54:42.016Z,100424.69
2023-01-11T13:57:53.647Z,100410.38
2023-01-11T14:01:20.614Z,100415.13
2023-01-11T14:04:33.713Z,100427.00
2023-01-11T14:07:51.250Z,100425.66
2023-01-11T14:11:10.561Z,100416.69
2023-01-11T14:14:33.884Z,100412.28
2023-01-11T14:18:11.684Z,100390.03
2023-01-11T14:21:30.299Z,100387.38
2023-01-11T14:24:36.077Z,100411.84
2023-01-11T14:28:05.887Z,100419.84
2023-01-11T14:31:26.579Z,100414.63
2023-01-11T14:35:06.481Z,100408.94
2023-01-11T14:38:36.015Z,100414.19
2023-01-11T14:41:57.285Z,100414.00
2023-01-11T14:45:28.919Z,100393.69
2023-01-11T14:48:50.201Z,100411.50
2023-01-11T14:52:03.960Z,100410.59
2023-01-11T14:55:30.938Z,100400.09
2023-01-11T14:58:33.252Z,100418.88
2023-01-11T15:02:03.565Z,100421.53
2023-01-11T15:05:10.797Z,100417.63
2023-01-11T15:08:14.262Z,100419.47
2023-01-11T15:11:35.735Z,100419.06
2023-01-11T15:14:38.160Z,100403.50
2023-01-11T15:18:00.467Z,100406.75
2023-01-11T15:21:05.206Z,100408.63
2023-01-11T15:24:22.298Z,100411.47
2023-01-11T15:27:28.115Z,100417.44
2023-01-11T15:30:30.466Z,100423.78
2023-01-11T15:34:16.614Z,100415.25
2023-01-11T15:42:10.259Z,100428.72
2023-01-11T15:46:07.833Z,100430.59
2023-01-11T15:49:31.525Z,100420.41
2023-01-11T15:52:52.669Z,100435.91
2023-01-11T15:56:10.218Z,100428.78
2023-01-11T16:00:15.898Z,100428.91
2023-01-11T16:04:05.285Z,100414.78
2023-01-11T16:07:28.915Z,100420.03
2023-01-11T16:10:46.530Z,100417.34
2023-01-11T16:14:11.858Z,100413.19
2023-01-11T16:17:21.691Z,100418.25
2023-01-11T16:20:26.693Z,100422.31
2023-01-11T16:23:30.947Z,100379.69
2023-01-11T16:26:35.163Z,100425.97
2023-01-11T16:29:37.835Z,100401.81
2023-01-11T16:32:40.207Z,100426.94
2023-01-11T16:35:42.526Z,100416.06
2023-01-11T16:38:46.463Z,100438.41
2023-01-11T16:42:05.928Z,100436.78
2023-01-11T16:45:14.336Z,100426.53
2023-01-11T16:48:24.344Z,100431.31
2023-01-11T16:51:26.643Z,100424.56
2023-01-11T16:54:31.158Z,100421.03
2023-01-11T16:57:37.682Z,100419.44
2023-01-11T17:00:40.350Z,100426.66
2023-01-11T17:03:50.691Z,100417.16
2023-01-11T17:06:53.332Z,100407.06
2023-01-11T17:10:24.627Z,100434.66
2023-01-11T17:13:54.853Z,100422.47
2023-01-11T17:17:02.909Z,100426.84
2023-01-11T17:20:15.999Z,100430.25
2023-01-11T17:23:18.481Z,100432.38
2023-01-11T17:26:26.437Z,100428.72
2023-01-11T17:29:32.291Z,100422.38
2023-01-11T17:32:46.524Z,100417.47
2023-01-11T17:35:48.911Z,100428.84
2023-01-11T17:38:51.271Z,100430.47
2023-01-11T17:42:12.163Z,100437.56
2023-01-11T17:45:23.451Z,100443.34
2023-01-11T17:48:27.088Z,100450.75
2023-01-11T17:51:34.094Z,100438.06
2023-01-11T17:54:36.398Z,100413.84
2023-01-11T17:57:39.125Z,100449.31
2023-01-11T18:00:43.593Z,100439.00
2023-01-11T18:03:51.452Z,100448.84
2023-01-11T18:07:07.282Z,100466.34
2023-01-11T18:10:18.283Z,100456.13
2023-01-11T18:13:31.786Z,100471.44
2023-01-11T18:16:34.314Z,100466.16
2023-01-11T18:19:43.226Z,100471.63
2023-01-11T18:22:54.637Z,100490.56
2023-01-11T18:26:36.914Z,100483.53
2023-01-11T18:29:39.489Z,100478.00
2023-01-11T18:32:44.647Z,100466.16
2023-01-11T18:35:49.495Z,100471.16
2023-01-11T18:38:51.913Z,100480.53
2023-01-11T18:42:09.810Z,100466.78
2023-01-11T18:45:13.121Z,100486.09
2023-01-11T18:48:15.872Z,100475.06
2023-01-11T18:51:36.241Z,100472.59
2023-01-11T18:54:39.387Z,100480.78
2023-01-11T18:57:42.473Z,100485.25
2023-01-11T19:00:44.774Z,100485.72
2023-01-11T19:03:47.123Z,100482.19
2023-01-11T19:06:52.405Z,100469.88
2023-01-11T19:09:55.084Z,100469.06
2023-01-11T19:12:57.519Z,100485.38
2023-01-11T19:16:02.922Z,100496.66
2023-01-11T19:19:05.278Z,100490.00
2023-01-11T19:22:07.702Z,100490.72
2023-01-11T19:25:10.471Z,100492.91
2023-01-11T19:28:12.874Z,100476.84
2023-01-11T19:31:15.342Z,100490.72
2023-01-11T19:34:18.106Z,100498.78
2023-01-11T19:37:20.797Z,100489.59
2023-01-11T19:40:23.100Z,100502.25
2023-01-11T19:43:25.591Z,100513.88
2023-01-11T19:46:31.878Z,100520.75
2023-01-11T19:49:34.431Z,100525.22
2023-01-11T19:52:36.910Z,100532.94
2023-01-11T19:55:39.427Z,100534.34
2023-01-11T19:58:41.772Z,100545.03
2023-01-11T20:01:44.629Z,100528.50
2023-01-11T20:04:47.621Z,100540.72
2023-01-11T20:07:50.478Z,100537.31
2023-01-11T20:10:53.645Z,100539.16
2023-01-11T20:13:55.913Z,100540.09
2023-01-11T20:16:58.285Z,100535.88
2023-01-11T20:20:00.728Z,100535.25
2023-01-11T20:23:03.325Z,100525.53
2023-01-11T20:26:07.492Z,100534.00
2023-01-11T20:29:09.818Z,100528.38
2023-01-11T20:32:34.898Z,100524.28
2023-01-11T20:35:34.467Z,100533.22
2023-01-11T20:38:36.868Z,100512.47
2023-01-11T20:41:48.770Z,100530.88
2023-01-11T20:44:51.183Z,100530.47
2023-01-11T20:47:53.435Z,100522.63
2023-01-11T20:50:59.864Z,100529.41
2023-01-11T20:54:02.698Z,100546.28
2023-01-11T20:57:12.336Z,100535.47
2023-01-11T21:00:15.191Z,100542.97
2023-01-11T21:03:20.077Z,100561.78
2023-01-11T21:06:22.457Z,100559.19
2023-01-11T21:09:24.689Z,100546.66
2023-01-11T21:12:27.044Z,100554.19
2023-01-11T21:15:29.359Z,100564.41
2023-01-11T21:18:31.740Z,100557.81
2023-01-11T21:21:34.878Z,100559.13
2023-01-11T21:24:38.940Z,100555.53
2023-01-11T21:27:41.231Z,100561.91
2023-01-11T21:30:43.524Z,100552.41
2023-01-11T21:33:45.805Z,100565.09
2023-01-11T21:36:48.197Z,100566.91
2023-01-11T21:39:51.729Z,100566.59
2023-01-11T21:42:54.648Z,100574.19
2023-01-11T21:45:56.971Z,100565.19
2023-01-11T21:48:59.274Z,100560.91
2023-01-11T21:52:01.747Z,100576.06
2023-01-11T21:55:04.296Z,100555.50
2023-01-11T21:58:06.717Z,100569.28
2023-01-11T22:01:11.460Z,100580.66
2023-01-11T22:04:17.784Z,100587.06
2023-01-11T22:07:20.364Z,100584.28
2023-01-11T22:10:22.869Z,100593.13
2023-01-11T22:13:26.841Z,100587.78
2023-01-11T22:16:30.769Z,100574.63
2023-01-11T22:19:33.136Z,100577.72
2023-01-11T22:22:35.585Z,100576.31
2023-01-11T22:25:37.987Z,100577.84
2023-01-11T22:28:59.772Z,100583.13
2023-01-11T22:32:04.379Z,100579.50
2023-01-11T22:35:07.278Z,100587.22
2023-01-11T22:38:09.643Z,100586.28
2023-01-11T22:41:12.134Z,100595.88
2023-01-11T22:44:14.826Z,100600.03
2023-01-11T22:47:17.218Z,100603.13
2023-01-11T22:50:19.634Z,100586.69
2023-01-11T22:53:22.075Z,100587.69
2023-01-11T22:56:26.502Z,100597.22
2023-01-11T22:59:28.920Z,100587.03
2023-01-11T23:02:31.269Z,100591.66
2023-01-11T23:05:33.620Z,100597.59
2023-01-11T23:08:43.522Z,100600.19
2023-01-11T23:12:04.504Z,100594.94
2023-01-11T23:15:07.654Z,100586.56
2023-01-11T23:18:11.544Z,100586.75
2023-01-11T23:21:14.348Z,100574.25
2023-01-11T23:24:17.140Z,100578.84
2023-01-11T23:27:19.561Z,100584.13
2023-01-11T23:30:22.111Z,100578.84
2023-01-11T23:33:24.560Z,100600.41
2023-01-11T23:36:32.044Z,100587.56
2023-01-11T23:39:34.399Z,100584.09
2023-01-11T23:42:38.451Z,100577.16
2023-01-11T23:45:40.880Z,100570.75
2023-01-11T23:48:43.190Z,100576.53
2023-01-11T23:51:45.470Z,100584.13
2023-01-11T23:54:48.271Z,100598.09
2023-01-11T23:58:08.932Z,100607.16
